Time;durP1;ratioP1;P1;durP2;ratioP2;P2;SDS_P1;SDS_P2;PMS_P1;PMS_P2;Temp;Humidity;BMP_temperature;BMP_pressure;BME280_temperature;BME280_humidity;BME280_pressure;Samples;Min_cycle;Max_cycle;Signal;HPM_P1;HPM_P2
2023/03/20 00:01:16;;;;;;;5.00;4.50;;;8.50;99.90;;;;;;5039621;28;20567;-75
2023/03/20 00:03:42;;;;;;;5.07;4.60;;;8.50;99.90;;;;;;5044906;28;20180;-74
2023/03/20 00:06:25;;;;;;;5.07;4.60;;;8.40;99.90;;;;;;5040086;28;20172;-75
2023/03/20 00:08:53;;;;;;;4.75;4.35;;;8.40;99.90;;;;;;5027833;28;20176;-75
2023/03/20 00:11:35;;;;;;;5.03;4.63;;;8.30;99.90;;;;;;5036667;28;20295;-75
2023/03/20 00:14:13;;;;;;;5.65;5.15;;;8.30;99.90;;;;;;5034959;28;20187;-78
2023/03/20 00:16:40;;;;;;;8.77;5.45;;;8.30;99.90;;;;;;5042341;28;20723;-77
2023/03/20 00:19:13;;;;;;;5.95;5.35;;;8.30;99.90;;;;;;5045369;28;20196;-75
2023/03/20 00:21:39;;;;;;;7.43;4.80;;;8.20;99.90;;;;;;5039811;28;20200;-77
2023/03/20 00:24:05;;;;;;;5.82;5.32;;;8.10;99.90;;;;;;5041858;28;20710;-75
2023/03/20 00:26:34;;;;;;;6.68;5.43;;;8.10;99.90;;;;;;5045645;28;20644;-78
2023/03/20 00:29:00;;;;;;;5.32;4.82;;;8.00;99.90;;;;;;5032517;28;20271;-75
2023/03/20 00:31:32;;;;;;;5.90;5.35;;;8.00;99.90;;;;;;5030048;28;20722;-75
2023/03/20 00:34:00;;;;;;;6.07;5.30;;;8.00;99.90;;;;;;5046060;28;20706;-75
2023/03/20 00:36:27;;;;;;;5.80;5.13;;;8.00;99.90;;;;;;5031774;28;20204;-75
2023/03/20 00:38:53;;;;;;;5.80;5.22;;;8.00;99.90;;;;;;5034584;28;20671;-75
2023/03/20 00:41:26;;;;;;;5.32;4.82;;;8.00;99.90;;;;;;5038295;28;20212;-75
2023/03/20 00:43:57;;;;;;;5.80;4.55;;;8.10;99.90;;;;;;5032000;28;20554;-75
2023/03/20 00:46:23;;;;;;;6.93;5.15;;;8.10;99.90;;;;;;5040052;28;20190;-76
2023/03/20 00:48:49;;;;;;;4.97;4.55;;;8.10;99.90;;;;;;5035401;28;20180;-74
2023/03/20 00:51:15;;;;;;;5.05;4.40;;;8.10;99.90;;;;;;5037855;28;20254;-75
2023/03/20 00:53:41;;;;;;;5.50;4.63;;;8.10;99.90;;;;;;5039690;28;20179;-75
2023/03/20 00:56:23;;;;;;;6.15;4.35;;;8.00;99.90;;;;;;5036591;28;20699;-74
2023/03/20 00:58:49;;;;;;;6.07;4.30;;;8.10;99.90;;;;;;5042383;28;20183;-74
2023/03/20 01:01:14;;;;;;;5.68;4.57;;;8.10;99.90;;;;;;5029356;28;20189;-77
2023/03/20 01:03:40;;;;;;;6.95;4.50;;;8.10;99.90;;;;;;5026827;28;20189;-75
2023/03/20 01:06:08;;;;;;;5.38;4.88;;;8.00;99.90;;;;;;5036493;28;20559;-75
2023/03/20 01:08:33;;;;;;;5.85;4.45;;;8.00;99.90;;;;;;5041952;28;20190;-75
2023/03/20 01:10:59;;;;;;;5.30;4.80;;;8.00;99.90;;;;;;5034983;28;20278;-75
2023/03/20 01:13:27;;;;;;;4.63;4.22;;;8.00;99.90;;;;;;5038061;28;20185;-74
2023/03/20 01:15:55;;;;;;;4.60;4.20;;;7.90;99.90;;;;;;5040575;28;20629;-75
2023/03/20 01:18:23;;;;;;;5.30;4.80;;;7.80;99.90;;;;;;5041175;28;20251;-80
2023/03/20 01:20:49;;;;;;;5.18;4.68;;;7.70;99.90;;;;;;5034037;28;20208;-77
2023/03/20 01:23:15;;;;;;;5.53;4.30;;;7.60;99.90;;;;;;5034891;28;20230;-76
2023/03/20 01:25:41;;;;;;;4.97;4.55;;;7.60;99.90;;;;;;5037818;28;20668;-76
2023/03/20 01:28:22;;;;;;;5.05;4.32;;;7.60;99.90;;;;;;5026431;28;20181;-76
2023/03/20 01:30:49;;;;;;;5.47;4.95;;;7.50;99.90;;;;;;5029260;28;20196;-75
2023/03/20 01:33:17;;;;;;;5.10;4.70;;;7.40;99.90;;;;;;5030784;28;20672;-74
2023/03/20 01:35:44;;;;;;;5.03;4.63;;;7.30;99.90;;;;;;5029182;28;20732;-75
2023/03/20 01:38:22;;;;;;;4.93;4.53;;;7.30;99.90;;;;;;5024192;28;20169;-75
2023/03/20 01:41:04;;;;;;;4.90;4.50;;;7.30;99.90;;;;;;5026381;28;20199;-74
2023/03/20 01:43:29;;;;;;;5.20;4.72;;;7.20;99.90;;;;;;5041436;28;20229;-73
2023/03/20 01:46:12;;;;;;;4.20;3.90;;;7.30;99.90;;;;;;5030910;28;20179;-74
2023/03/20 01:48:54;;;;;;;7.13;4.63;;;7.20;99.90;;;;;;5032712;28;20555;-74
2023/03/20 01:51:24;;;;;;;5.10;4.60;;;7.10;99.90;;;;;;5034334;28;20257;-74
2023/03/20 01:54:21;;;;;;;5.55;4.40;;;7.10;99.90;;;;;;5019531;28;20264;-74
2023/03/20 01:56:58;;;;;;;5.20;4.72;;;7.10;99.90;;;;;;5031295;28;20207;-76
2023/03/20 01:59:31;;;;;;;4.80;4.40;;;7.20;99.90;;;;;;5039871;28;20712;-75
2023/03/20 02:01:58;;;;;;;5.57;5.07;;;7.20;99.90;;;;;;5033311;28;20219;-75
2023/03/20 02:04:29;;;;;;;7.07;5.75;;;7.20;99.90;;;;;;5030244;28;20188;-75
2023/03/20 02:06:55;;;;;;;5.55;4.97;;;7.20;99.90;;;;;;5030552;28;20187;-75
2023/03/20 02:09:21;;;;;;;5.60;4.63;;;7.30;99.90;;;;;;5029106;28;20181;-74
2023/03/20 02:11:47;;;;;;;4.78;4.38;;;7.40;99.90;;;;;;5027824;28;20540;-75
2023/03/20 02:14:14;;;;;;;5.30;4.85;;;7.50;99.90;;;;;;5030488;28;20226;-75
2023/03/20 02:16:40;;;;;;;5.55;5.05;;;7.60;99.90;;;;;;5029355;28;20301;-75
2023/03/20 02:19:14;;;;;;;6.63;4.97;;;7.70;99.90;;;;;;5029714;28;20561;-75
2023/03/20 02:21:57;;;;;;;4.75;4.32;;;7.80;99.90;;;;;;5033461;28;20295;-75
2023/03/20 02:24:51;;;;;;;4.75;4.35;;;7.90;99.90;;;;;;5037216;28;20168;-74
2023/03/20 02:27:48;;;;;;;5.82;4.88;;;7.90;99.90;;;;;;5027080;28;20185;-75
2023/03/20 02:30:41;;;;;;;5.90;4.85;;;7.80;99.90;;;;;;5030568;28;20654;-75
2023/03/20 02:33:29;;;;;;;5.78;5.13;;;7.70;99.90;;;;;;5030718;28;20243;-75
2023/03/20 02:36:13;;;;;;;6.20;4.75;;;7.60;99.90;;;;;;5026699;28;20200;-75
2023/03/20 02:38:45;;;;;;;4.88;4.35;;;7.60;99.90;;;;;;5027695;28;20184;-75
2023/03/20 02:41:22;;;;;;;5.22;4.72;;;7.60;99.90;;;;;;5026448;28;20675;-75
2023/03/20 02:44:25;;;;;;;5.13;4.63;;;7.50;99.90;;;;;;5020836;28;20183;-75
2023/03/20 02:47:17;;;;;;;5.93;4.75;;;7.40;99.90;;;;;;5033721;28;20202;-75
2023/03/20 02:49:52;;;;;;;5.60;4.63;;;7.20;99.90;;;;;;5029845;28;20180;-75
2023/03/20 02:52:32;;;;;;;5.72;5.18;;;7.10;99.90;;;;;;5032931;28;20238;-75
2023/03/20 02:55:16;;;;;;;7.38;4.90;;;7.00;99.90;;;;;;5025399;28;20184;-75
2023/03/20 02:57:57;;;;;;;4.63;4.22;;;7.00;99.90;;;;;;5032550;28;20556;-75
2023/03/20 03:00:34;;;;;;;6.05;4.80;;;6.90;99.90;;;;;;5035741;28;20243;-74
2023/03/20 03:03:15;;;;;;;5.05;4.55;;;6.80;99.90;;;;;;5027294;28;20648;-74
2023/03/20 03:05:50;;;;;;;5.22;4.72;;;6.80;99.90;;;;;;5033120;28;20228;-74
2023/03/20 03:08:21;;;;;;;5.20;4.80;;;6.80;99.90;;;;;;5032692;28;20191;-74
2023/03/20 03:11:12;;;;;;;5.25;4.75;;;6.70;99.90;;;;;;5026786;28;20216;-74
2023/03/20 03:13:43;;;;;;;5.10;4.60;;;6.60;99.90;;;;;;5035631;28;20567;-74
2023/03/20 03:16:14;;;;;;;5.28;4.78;;;6.50;99.90;;;;;;5026691;28;20246;-74
2023/03/20 03:18:41;;;;;;;5.70;5.13;;;6.50;99.90;;;;;;5027490;28;20189;-74
2023/03/20 03:21:09;;;;;;;5.70;5.13;;;6.50;99.90;;;;;;5022380;28;20279;-74
2023/03/20 03:23:44;;;;;;;7.85;5.80;;;6.50;99.90;;;;;;5029877;28;20184;-74
2023/03/20 03:26:17;;;;;;;6.15;5.55;;;6.50;99.90;;;;;;5026717;28;20183;-74
2023/03/20 03:28:49;;;;;;;7.13;5.35;;;6.50;99.90;;;;;;5037231;28;20169;-74
2023/03/20 03:31:16;;;;;;;6.55;5.93;;;6.40;99.90;;;;;;5027243;28;20573;-74
2023/03/20 03:33:47;;;;;;;8.65;5.38;;;6.40;99.90;;;;;;5026233;28;20185;-75
2023/03/20 03:36:19;;;;;;;6.18;5.57;;;6.40;99.90;;;;;;5029009;28;20219;-75
2023/03/20 03:39:02;;;;;;;6.30;5.80;;;6.50;99.90;;;;;;5031285;28;20307;-74
2023/03/20 03:41:54;;;;;;;6.82;6.05;;;6.50;99.90;;;;;;5034546;28;20264;-74
2023/03/20 03:44:27;;;;;;;6.78;6.18;;;6.50;99.90;;;;;;5032079;28;20184;-74
2023/03/20 03:46:55;;;;;;;6.80;5.97;;;6.60;99.90;;;;;;5029889;28;20180;-75
2023/03/20 03:49:33;;;;;;;8.15;5.80;;;6.70;99.90;;;;;;5041039;28;20187;-74
2023/03/20 03:52:09;;;;;;;6.13;5.60;;;6.80;99.90;;;;;;5035455;28;20303;-74
2023/03/20 03:54:39;;;;;;;5.95;5.45;;;6.90;99.90;;;;;;5029864;28;20184;-73
2023/03/20 03:57:07;;;;;;;6.35;4.95;;;6.90;99.90;;;;;;5037704;28;20695;-74
2023/03/20 03:59:38;;;;;;;6.78;6.25;;;6.90;99.90;;;;;;5034888;28;20187;-74
2023/03/20 04:02:07;;;;;;;6.07;5.47;;;7.00;99.90;;;;;;5031086;28;20203;-73
2023/03/20 04:04:35;;;;;;;7.13;6.47;;;7.00;99.90;;;;;;5031810;28;20177;-74
2023/03/20 04:07:01;;;;;;;5.95;5.35;;;7.00;99.90;;;;;;5032454;28;20181;-74
2023/03/20 04:09:27;;;;;;;5.72;5.32;;;7.10;99.90;;;;;;5035706;28;20546;-74
2023/03/20 04:11:53;;;;;;;6.03;5.53;;;7.10;99.90;;;;;;5036075;28;20204;-73
2023/03/20 04:14:20;;;;;;;9.73;5.22;;;7.10;99.90;;;;;;5034706;28;20180;-74
2023/03/20 04:16:45;;;;;;;5.60;5.07;;;7.10;99.90;;;;;;5026955;28;20208;-74
2023/03/20 04:19:11;;;;;;;6.03;5.43;;;7.10;99.90;;;;;;5036157;28;20195;-74
2023/03/20 04:21:37;;;;;;;5.57;5.15;;;7.10;99.90;;;;;;5033703;28;20197;-74
2023/03/20 04:24:03;;;;;;;5.75;5.32;;;7.10;99.90;;;;;;5031634;28;20683;-74
2023/03/20 04:26:28;;;;;;;5.05;4.65;;;7.10;99.90;;;;;;5032103;28;20186;-74
2023/03/20 04:28:54;;;;;;;5.43;4.93;;;7.10;99.90;;;;;;5030415;28;20377;-75
2023/03/20 04:31:20;;;;;;;4.95;4.55;;;7.20;99.90;;;;;;5028908;28;20239;-74
2023/03/20 04:33:51;;;;;;;5.50;5.00;;;7.20;99.90;;;;;;5032876;28;20181;-74
2023/03/20 04:36:17;;;;;;;5.93;5.43;;;7.20;99.90;;;;;;5023339;28;20209;-74
2023/03/20 04:38:43;;;;;;;5.28;4.88;;;7.30;99.90;;;;;;5032053;28;20549;-74
2023/03/20 04:41:08;;;;;;;5.43;5.03;;;7.30;99.90;;;;;;5028936;28;20255;-75
2023/03/20 04:43:34;;;;;;;5.28;4.78;;;7.30;99.90;;;;;;5028126;28;20188;-75
2023/03/20 04:46:00;;;;;;;7.80;5.88;;;7.30;99.90;;;;;;5028510;28;20244;-75
2023/03/20 04:48:26;;;;;;;6.55;5.20;;;7.30;99.90;;;;;;5034006;28;20242;-78
2023/03/20 04:50:52;;;;;;;6.55;5.15;;;7.30;99.90;;;;;;5026333;28;20289;-74
2023/03/20 04:53:18;;;;;;;5.85;5.35;;;7.40;99.90;;;;;;5021403;28;20242;-74
2023/03/20 04:55:44;;;;;;;7.45;6.45;;;7.40;99.90;;;;;;5029659;28;20203;-77
2023/03/20 04:58:11;;;;;;;7.40;5.20;;;7.40;99.90;;;;;;5027237;28;20170;-74
2023/03/20 05:00:37;;;;;;;6.68;6.03;;;7.40;99.90;;;;;;5028871;28;20201;-74
2023/03/20 05:03:02;;;;;;;5.50;5.00;;;7.40;99.90;;;;;;5028200;28;20176;-74
2023/03/20 05:05:28;;;;;;;6.90;5.53;;;7.50;99.90;;;;;;5023183;28;20189;-75
2023/03/20 05:07:54;;;;;;;7.35;5.80;;;7.50;99.90;;;;;;5026310;28;20208;-76
2023/03/20 05:10:20;;;;;;;5.40;4.90;;;7.40;99.90;;;;;;5036286;28;20216;-74
2023/03/20 05:12:47;;;;;;;5.30;4.85;;;7.50;99.90;;;;;;5038016;28;20188;-75
2023/03/20 05:15:13;;;;;;;5.45;5.05;;;7.50;99.90;;;;;;5030786;28;20204;-74
2023/03/20 05:17:38;;;;;;;5.43;4.93;;;7.60;99.90;;;;;;5033070;28;20240;-74
2023/03/20 05:20:05;;;;;;;6.40;5.80;;;7.60;99.90;;;;;;5028045;28;20613;-74
2023/03/20 05:22:31;;;;;;;8.88;7.20;;;7.70;99.90;;;;;;5029757;28;20698;-74
2023/03/20 05:24:56;;;;;;;7.15;6.45;;;7.70;99.90;;;;;;5028957;28;20275;-73
2023/03/20 05:27:22;;;;;;;6.85;6.20;;;7.60;99.90;;;;;;5024663;28;20271;-73
2023/03/20 05:29:48;;;;;;;9.50;7.90;;;7.70;99.90;;;;;;5031062;28;20191;-73
2023/03/20 05:32:13;;;;;;;10.63;8.10;;;7.70;99.90;;;;;;5041393;28;20277;-73
2023/03/20 05:34:39;;;;;;;12.50;7.82;;;7.70;99.90;;;;;;5023007;28;20192;-73
2023/03/20 05:37:04;;;;;;;8.20;6.93;;;7.70;99.90;;;;;;5031019;28;20231;-73
2023/03/20 05:39:30;;;;;;;8.45;7.47;;;7.70;99.90;;;;;;5033579;28;20176;-75
2023/03/20 05:41:56;;;;;;;6.85;6.15;;;7.80;99.90;;;;;;5032302;28;20570;-74
2023/03/20 05:44:21;;;;;;;6.78;5.43;;;7.80;99.90;;;;;;5030906;28;20315;-75
2023/03/20 05:46:47;;;;;;;6.07;5.47;;;7.80;99.90;;;;;;5028423;28;20214;-75
2023/03/20 05:49:12;;;;;;;6.53;5.25;;;7.80;99.90;;;;;;5031379;28;20177;-75
2023/03/20 05:51:38;;;;;;;7.15;5.90;;;7.90;99.90;;;;;;5031984;28;20235;-73
2023/03/20 05:54:04;;;;;;;6.68;5.60;;;8.00;99.90;;;;;;5020691;28;20190;-73
2023/03/20 05:56:30;;;;;;;6.82;5.90;;;8.00;99.90;;;;;;5035528;28;20203;-76
2023/03/20 05:58:55;;;;;;;5.82;5.32;;;8.00;99.90;;;;;;5032485;28;20661;-76
2023/03/20 06:01:21;;;;;;;7.72;5.60;;;8.00;99.90;;;;;;5028035;28;20213;-76
2023/03/20 06:03:48;;;;;;;5.85;5.35;;;8.00;99.90;;;;;;5029953;28;20181;-77
2023/03/20 06:06:14;;;;;;;6.28;5.05;;;8.10;99.90;;;;;;5028557;28;20193;-76
2023/03/20 06:08:40;;;;;;;5.40;4.90;;;8.10;99.90;;;;;;5027442;28;20188;-77
2023/03/20 06:11:07;;;;;;;5.95;5.35;;;8.20;99.90;;;;;;5037228;28;20204;-79
2023/03/20 06:13:32;;;;;;;5.70;5.20;;;8.30;99.90;;;;;;5028019;28;20188;-76
2023/03/20 06:15:58;;;;;;;5.95;5.32;;;8.40;99.90;;;;;;5025468;28;20207;-76
2023/03/20 06:18:23;;;;;;;5.97;5.10;;;8.50;99.90;;;;;;5028810;28;20664;-77
2023/03/20 06:20:53;;;;;;;6.70;5.43;;;8.60;99.90;;;;;;5024562;28;20200;-76
2023/03/20 06:23:19;;;;;;;7.35;6.03;;;8.70;99.90;;;;;;5025776;28;20172;-75
2023/03/20 06:25:45;;;;;;;5.95;5.45;;;8.80;99.90;;;;;;5021590;28;20242;-75
2023/03/20 06:28:11;;;;;;;6.65;5.72;;;8.80;99.90;;;;;;5024995;28;20602;-76
2023/03/20 06:30:37;;;;;;;7.47;6.38;;;8.80;99.90;;;;;;5032538;28;20223;-75
2023/03/20 06:33:05;;;;;;;7.47;5.95;;;8.90;99.90;;;;;;5026020;28;20344;-75
2023/03/20 06:35:30;;;;;;;6.65;6.03;;;8.90;99.90;;;;;;5021799;28;20198;-76
2023/03/20 06:38:00;;;;;;;8.95;6.60;;;9.10;99.90;;;;;;5028408;28;20682;-83
2023/03/20 06:40:26;;;;;;;9.70;6.57;;;9.20;99.90;;;;;;5042033;28;20203;-77
2023/03/20 06:42:52;;;;;;;6.82;6.20;;;9.20;99.90;;;;;;5023583;28;20205;-76
2023/03/20 06:45:18;;;;;;;8.05;6.28;;;9.20;99.90;;;;;;5025203;28;20188;-76
2023/03/20 06:47:45;;;;;;;10.25;6.43;;;9.30;99.90;;;;;;5030642;28;20187;-74
2023/03/20 06:50:12;;;;;;;6.72;6.15;;;9.50;99.90;;;;;;5037781;28;20230;-76
2023/03/20 06:52:38;;;;;;;8.18;6.88;;;9.70;99.90;;;;;;5028432;28;20185;-77
2023/03/20 06:55:05;;;;;;;8.90;8.00;;;9.90;99.90;;;;;;5026075;28;20185;-76
2023/03/20 06:57:31;;;;;;;11.30;7.35;;;10.00;99.90;;;;;;5029055;28;20196;-75
2023/03/20 06:59:57;;;;;;;7.68;6.97;;;10.10;99.90;;;;;;5023491;28;20177;-77
2023/03/20 07:02:23;;;;;;;8.35;7.38;;;10.20;99.90;;;;;;5025553;28;20235;-75
2023/03/20 07:04:48;;;;;;;7.70;7.00;;;10.30;99.90;;;;;;5021301;28;20168;-76
2023/03/20 07:07:14;;;;;;;8.43;7.28;;;10.50;99.90;;;;;;5024210;28;20226;-75
2023/03/20 07:09:39;;;;;;;7.28;6.57;;;10.70;99.90;;;;;;5020641;28;20195;-75
2023/03/20 07:12:13;;;;;;;8.80;6.30;;;10.90;99.90;;;;;;5029990;28;20564;-76
2023/03/20 07:14:40;;;;;;;7.75;6.40;;;11.00;99.90;;;;;;5036193;28;20177;-76
2023/03/20 07:17:10;;;;;;;8.77;6.68;;;11.20;99.90;;;;;;5033447;28;20207;-77
2023/03/20 07:19:36;;;;;;;6.57;5.95;;;11.40;99.90;;;;;;5022447;28;20514;-76
2023/03/20 07:22:05;;;;;;;6.10;5.50;;;11.50;99.90;;;;;;5027184;28;20197;-78
2023/03/20 07:24:31;;;;;;;6.88;6.18;;;11.70;99.90;;;;;;5035678;28;20180;-76
2023/03/20 07:26:57;;;;;;;16.70;6.43;;;11.90;99.90;;;;;;5040847;28;20207;-76
2023/03/20 07:29:23;;;;;;;9.85;6.47;;;12.10;99.90;;;;;;5029824;28;20249;-76
2023/03/20 07:31:48;;;;;;;8.95;5.47;;;12.00;99.90;;;;;;5038044;28;20741;-79
2023/03/20 07:34:14;;;;;;;5.22;4.82;;;12.10;99.90;;;;;;5032488;28;20177;-76
2023/03/20 07:36:43;;;;;;;4.47;4.18;;;12.20;99.90;;;;;;5027326;28;21228;-77
2023/03/20 07:39:09;;;;;;;4.45;4.15;;;12.30;99.90;;;;;;5028894;28;20253;-76
2023/03/20 07:41:36;;;;;;;24.17;8.93;;;12.30;99.90;;;;;;5032343;28;20196;-76
2023/03/20 07:44:09;;;;;;;4.82;4.43;;;12.20;99.90;;;;;;5037477;28;20193;-76
2023/03/20 07:46:35;;;;;;;4.32;4.03;;;12.10;99.90;;;;;;5035439;28;20187;-76
2023/03/20 07:49:01;;;;;;;4.03;3.72;;;12.00;99.90;;;;;;5027696;28;20458;-75
2023/03/20 07:51:26;;;;;;;4.53;4.22;;;12.00;99.90;;;;;;5026885;28;20250;-75
2023/03/20 07:53:52;;;;;;;4.95;4.65;;;11.90;99.90;;;;;;5028765;28;20543;-76
2023/03/20 07:56:18;;;;;;;4.18;3.88;;;11.70;99.90;;;;;;5033014;28;20204;-79
2023/03/20 07:58:43;;;;;;;4.80;4.43;;;11.70;99.90;;;;;;5030824;28;20178;-76
2023/03/20 08:01:09;;;;;;;4.75;4.35;;;11.70;99.90;;;;;;5030039;28;20192;-77
2023/03/20 08:03:35;;;;;;;4.32;4.03;;;11.80;99.90;;;;;;5041500;28;20189;-77
2023/03/20 08:06:00;;;;;;;4.60;4.30;;;11.80;99.90;;;;;;5033071;28;20181;-76
2023/03/20 08:08:26;;;;;;;4.50;4.20;;;11.80;99.90;;;;;;5028779;28;20227;-74
2023/03/20 08:10:52;;;;;;;4.60;4.30;;;11.90;99.90;;;;;;5035816;28;20203;-75
2023/03/20 08:13:17;;;;;;;5.95;3.95;;;11.90;99.90;;;;;;5032619;28;20198;-74
2023/03/20 08:15:43;;;;;;;3.95;3.65;;;12.10;99.90;;;;;;5030574;28;20181;-74
2023/03/20 08:18:09;;;;;;;4.05;3.72;;;12.20;99.90;;;;;;5037114;28;20596;-74
2023/03/20 08:20:35;;;;;;;3.83;3.47;;;12.60;99.90;;;;;;5036865;28;20208;-78
2023/03/20 08:23:01;;;;;;;4.43;3.92;;;12.90;99.90;;;;;;5034932;28;20205;-75
2023/03/20 08:25:31;;;;;;;4.03;3.55;;;13.10;99.90;;;;;;5030500;28;20192;-76
2023/03/20 08:27:56;;;;;;;3.90;3.47;;;13.30;99.90;;;;;;5033583;28;20180;-76
2023/03/20 08:30:22;;;;;;;4.53;4.18;;;13.60;99.90;;;;;;5036618;28;20196;-76
2023/03/20 08:32:48;;;;;;;4.00;3.58;;;13.80;99.90;;;;;;5038062;28;20608;-76
2023/03/20 08:35:14;;;;;;;3.60;3.30;;;14.00;99.90;;;;;;5032730;28;20212;-77
2023/03/20 08:37:39;;;;;;;5.90;3.38;;;14.20;99.90;;;;;;5036201;28;20200;-76
2023/03/20 08:40:05;;;;;;;3.60;3.30;;;14.40;99.90;;;;;;5029266;28;20211;-77
2023/03/20 08:42:34;;;;;;;2.90;2.75;;;14.60;99.90;;;;;;5037096;28;20183;-77
2023/03/20 08:45:00;;;;;;;3.90;2.97;;;14.80;99.90;;;;;;5029785;28;20271;-77
2023/03/20 08:47:25;;;;;;;3.20;3.00;;;15.10;99.90;;;;;;5036825;28;21026;-75
2023/03/20 08:49:51;;;;;;;4.43;3.55;;;15.30;99.90;;;;;;5034764;28;20700;-78
2023/03/20 08:52:17;;;;;;;3.00;2.70;;;15.60;99.90;;;;;;5034739;28;20235;-75
2023/03/20 08:54:43;;;;;;;3.67;3.40;;;15.50;99.90;;;;;;5042014;28;20429;-76
2023/03/20 08:57:08;;;;;;;4.65;3.10;;;15.40;99.90;;;;;;5030867;28;20283;-76
2023/03/20 08:59:34;;;;;;;3.20;3.00;;;15.60;99.90;;;;;;5035482;28;20261;-77
2023/03/20 09:02:00;;;;;;;2.70;2.50;;;16.50;99.90;;;;;;5028370;28;20204;-78
2023/03/20 09:04:26;;;;;;;2.90;2.70;;;18.10;99.90;;;;;;5032071;28;20272;-76
2023/03/20 09:06:52;;;;;;;2.65;2.55;;;19.60;99.90;;;;;;5032471;28;20230;-77
2023/03/20 09:09:20;;;;;;;2.67;2.50;;;20.40;99.60;;;;;;5029315;28;20185;-76
2023/03/20 09:11:46;;;;;;;2.25;2.15;;;21.40;96.30;;;;;;5040748;28;20235;-78
2023/03/20 09:14:11;;;;;;;3.22;3.03;;;22.00;93.10;;;;;;5033525;28;20177;-80
2023/03/20 09:16:37;;;;;;;2.15;2.05;;;22.50;90.90;;;;;;5034853;28;20200;-75
2023/03/20 09:19:03;;;;;;;2.35;2.25;;;22.40;89.10;;;;;;5028226;28;20283;-77
2023/03/20 09:21:28;;;;;;;2.63;2.53;;;21.70;89.60;;;;;;5031300;28;20287;-75
2023/03/20 09:23:54;;;;;;;2.72;2.60;;;21.40;89.20;;;;;;5038758;28;20201;-77
2023/03/20 09:26:19;;;;;;;2.35;2.10;;;21.70;90.40;;;;;;5032604;28;20668;-77
2023/03/20 09:28:45;;;;;;;2.80;2.60;;;22.20;87.50;;;;;;5030162;28;20185;-82
2023/03/20 09:31:11;;;;;;;2.58;2.38;;;21.60;87.60;;;;;;5032868;28;20209;-78
2023/03/20 09:33:36;;;;;;;2.33;2.20;;;21.10;88.60;;;;;;5036011;28;20197;-82
2023/03/20 09:36:02;;;;;;;2.33;2.22;;;20.20;90.50;;;;;;5033950;28;20694;-78
2023/03/20 09:38:28;;;;;;;2.40;2.30;;;19.50;91.40;;;;;;5038829;28;20176;-77
2023/03/20 09:40:59;;;;;;;2.60;2.40;;;18.80;92.50;;;;;;5039064;28;20223;-81
2023/03/20 09:43:34;;;;;;;2.70;2.50;;;18.30;93.20;;;;;;5038227;28;20945;-76
2023/03/20 09:46:09;;;;;;;2.90;2.70;;;17.90;94.20;;;;;;5033446;28;20557;-78
2023/03/20 09:48:43;;;;;;;3.00;2.80;;;17.60;95.20;;;;;;5037219;28;20214;-77
2023/03/20 09:51:30;;;;;;;2.53;2.42;;;17.30;95.90;;;;;;5034472;28;20197;-78
2023/03/20 09:54:04;;;;;;;2.08;1.98;;;17.30;96.10;;;;;;5040315;28;20242;-78
2023/03/20 09:56:30;;;;;;;2.13;2.03;;;17.20;95.90;;;;;;5045363;28;20230;-77
2023/03/20 09:59:02;;;;;;;2.17;2.08;;;17.80;95.60;;;;;;5027146;28;20675;-75
2023/03/20 10:01:46;;;;;;;2.30;2.20;;;17.90;95.40;;;;;;5037633;28;20231;-76
2023/03/20 10:04:11;;;;;;;2.65;2.45;;;17.90;95.20;;;;;;5033875;28;20186;-76
2023/03/20 10:06:37;;;;;;;2.08;1.98;;;18.10;95.70;;;;;;5028863;28;20263;-76
2023/03/20 10:09:24;;;;;;;2.08;1.98;;;19.00;95.00;;;;;;5027800;28;20189;-76
2023/03/20 10:12:26;;;;;;;2.00;1.90;;;21.20;91.00;;;;;;5037437;28;20207;-76
2023/03/20 10:15:13;;;;;;;2.70;2.08;;;22.50;86.10;;;;;;5021750;28;20194;-76
2023/03/20 10:18:01;;;;;;;1.88;1.77;;;22.40;81.70;;;;;;5021915;28;20212;-76
2023/03/20 10:20:33;;;;;;;1.67;1.60;;;22.10;81.90;;;;;;5023653;28;20808;-77
2023/03/20 10:23:02;;;;;;;1.45;1.42;;;23.50;77.50;;;;;;5021221;28;20835;-77
2023/03/20 10:25:32;;;;;;;1.20;1.20;;;24.20;76.80;;;;;;5023505;28;20195;-76
2023/03/20 10:28:02;;;;;;;1.70;1.60;;;26.40;69.40;;;;;;5019920;28;20219;-76
2023/03/20 10:30:40;;;;;;;1.60;1.60;;;27.20;64.10;;;;;;5031463;28;20246;-77
2023/03/20 10:33:56;;;;;;;1.70;1.60;;;28.60;60.00;;;;;;5034371;28;20181;-76
2023/03/20 10:36:31;;;;;;;1.75;1.73;;;27.40;60.90;;;;;;5022678;28;20208;-77
2023/03/20 10:39:18;;;;;;;1.33;1.33;;;26.20;63.30;;;;;;5030433;28;20187;-77
2023/03/20 10:41:52;;;;;;;2.00;1.70;;;26.20;62.50;;;;;;5028369;28;20204;-77
2023/03/20 10:44:30;;;;;;;2.17;1.63;;;26.00;63.50;;;;;;5027169;28;20180;-75
2023/03/20 10:46:57;;;;;;;1.45;1.45;;;26.90;61.20;;;;;;5029006;28;20679;-75
2023/03/20 10:49:45;;;;;;;1.40;1.40;;;28.10;60.30;;;;;;5033289;28;20268;-75
2023/03/20 10:52:28;;;;;;;1.65;1.55;;;29.70;57.90;;;;;;5037194;28;20852;-74
2023/03/20 10:55:09;;;;;;;1.58;1.48;;;30.90;54.50;;;;;;5039929;28;20205;-75
2023/03/20 10:57:40;;;;;;;1.15;1.15;;;30.50;53.20;;;;;;5026500;28;20234;-74
2023/03/20 11:00:13;;;;;;;3.08;1.23;;;30.80;51.70;;;;;;5028092;28;20194;-75
2023/03/20 11:02:39;;;;;;;1.15;1.15;;;31.10;50.30;;;;;;5022339;28;20595;-75
2023/03/20 11:05:30;;;;;;;1.10;1.10;;;30.60;50.00;;;;;;5030436;28;20326;-75
2023/03/20 11:08:06;;;;;;;1.05;1.05;;;31.50;49.20;;;;;;5024125;28;20177;-77
2023/03/20 11:10:34;;;;;;;1.38;1.00;;;32.60;47.50;;;;;;5023732;28;20203;-75
2023/03/20 11:13:15;;;;;;;0.90;0.90;;;32.00;47.40;;;;;;5030796;28;20661;-77
2023/03/20 11:15:41;;;;;;;1.27;1.27;;;31.70;48.20;;;;;;5021060;28;20184;-75
2023/03/20 11:18:13;;;;;;;1.30;1.20;;;30.90;48.80;;;;;;5025508;28;20217;-76
2023/03/20 11:20:43;;;;;;;1.45;1.35;;;29.20;50.80;;;;;;5026556;28;20208;-75
2023/03/20 11:23:15;;;;;;;1.33;1.25;;;27.60;53.60;;;;;;5030450;28;20283;-75
2023/03/20 11:26:05;;;;;;;1.40;1.35;;;26.20;55.70;;;;;;5046305;28;20303;-75
2023/03/20 11:28:39;;;;;;;1.60;1.50;;;24.40;59.00;;;;;;5021416;28;20223;-77
2023/03/20 11:31:30;;;;;;;1.00;1.00;;;23.00;60.70;;;;;;5024265;28;20196;-76
2023/03/20 11:34:14;;;;;;;1.27;1.27;;;21.60;65.40;;;;;;5028747;28;20557;-75
2023/03/20 11:37:00;;;;;;;1.30;1.30;;;20.40;68.40;;;;;;5032341;28;20200;-73
2023/03/20 11:39:31;;;;;;;1.40;1.40;;;19.80;69.50;;;;;;5033339;28;20173;-74
2023/03/20 11:41:58;;;;;;;1.50;1.40;;;19.10;72.00;;;;;;5031920;28;20198;-73
2023/03/20 11:44:27;;;;;;;1.42;1.33;;;18.70;73.60;;;;;;5029454;28;20666;-74
2023/03/20 11:47:14;;;;;;;1.83;1.73;;;18.20;76.30;;;;;;5027505;28;20210;-73
2023/03/20 11:49:57;;;;;;;1.35;1.35;;;17.70;78.00;;;;;;5028406;28;21088;-73
2023/03/20 11:52:31;;;;;;;2.30;1.42;;;17.40;79.10;;;;;;5026573;28;20220;-73
2023/03/20 11:54:59;;;;;;;1.45;1.45;;;17.00;81.80;;;;;;5040419;28;20530;-73
2023/03/20 11:57:31;;;;;;;1.20;1.20;;;16.80;82.50;;;;;;5037686;28;20553;-74
2023/03/20 11:59:59;;;;;;;1.08;1.08;;;16.60;83.90;;;;;;5030415;28;20188;-73
2023/03/20 12:02:26;;;;;;;1.15;1.15;;;16.70;83.40;;;;;;5024236;28;20236;-73
2023/03/20 12:04:51;;;;;;;1.10;1.10;;;16.60;83.80;;;;;;5034574;28;20181;-73
2023/03/20 12:07:26;;;;;;;1.13;1.10;;;16.60;84.30;;;;;;5033119;28;20313;-73
2023/03/20 12:09:59;;;;;;;1.20;1.10;;;16.40;85.40;;;;;;5030433;28;20250;-73
2023/03/20 12:12:49;;;;;;;1.17;1.13;;;16.20;86.40;;;;;;5029966;28;20215;-73
2023/03/20 12:15:30;;;;;;;1.10;1.10;;;16.10;90.80;;;;;;5022575;28;20302;-73
2023/03/20 12:18:02;;;;;;;1.58;0.85;;;16.00;90.80;;;;;;5028257;28;20265;-73
2023/03/20 12:20:43;;;;;;;1.98;1.42;;;16.00;92.20;;;;;;5029290;28;20592;-73
2023/03/20 12:23:12;;;;;;;2.55;1.00;;;15.80;95.50;;;;;;5031638;28;20181;-74
2023/03/20 12:25:59;;;;;;;1.20;1.20;;;15.60;99.90;;;;;;5039762;28;20734;-74
2023/03/20 12:28:50;;;;;;;0.80;0.80;;;15.20;99.90;;;;;;5033654;28;20588;-73
2023/03/20 12:31:29;;;;;;;1.60;1.45;;;14.80;99.90;;;;;;5031425;28;20255;-72
2023/03/20 12:34:11;;;;;;;1.40;1.40;;;14.40;99.90;;;;;;5027069;28;20544;-72
2023/03/20 12:36:45;;;;;;;1.40;1.30;;;13.90;99.90;;;;;;5038643;28;20221;-72
2023/03/20 12:39:17;;;;;;;1.52;1.52;;;13.30;99.90;;;;;;5033927;28;20175;-73
2023/03/20 12:42:03;;;;;;;2.03;1.98;;;12.80;99.90;;;;;;5030814;28;20212;-73
2023/03/20 12:44:51;;;;;;;2.53;2.33;;;12.60;99.90;;;;;;5032633;28;20242;-73
2023/03/20 12:47:47;;;;;;;2.65;2.45;;;12.60;99.90;;;;;;5032484;28;20189;-73
2023/03/20 12:50:28;;;;;;;2.85;2.40;;;12.50;99.90;;;;;;5033152;28;20191;-74
2023/03/20 12:53:27;;;;;;;1.85;1.75;;;12.60;99.90;;;;;;5030683;28;20188;-73
2023/03/20 12:56:39;;;;;;;2.28;2.17;;;12.50;99.90;;;;;;5029479;28;20216;-73
2023/03/20 12:59:18;;;;;;;2.30;2.20;;;12.50;99.90;;;;;;5031223;28;20193;-73
2023/03/20 13:01:49;;;;;;;1.95;1.85;;;12.60;99.90;;;;;;5037486;28;20251;-73
2023/03/20 13:04:45;;;;;;;1.80;1.80;;;12.90;99.90;;;;;;5026206;28;20177;-75
2023/03/20 13:07:26;;;;;;;2.00;1.90;;;13.40;99.90;;;;;;5026442;28;20652;-73
2023/03/20 13:10:18;;;;;;;1.60;1.60;;;13.90;99.90;;;;;;5029847;28;20184;-73
2023/03/20 13:13:16;;;;;;;1.90;1.80;;;14.30;99.90;;;;;;5038561;28;20181;-74
2023/03/20 13:16:39;;;;;;;1.60;1.60;;;14.70;99.90;;;;;;5033289;28;20250;-73